createdAt,value
2019-03-29T00:01:00.866Z,83.78
2019-03-29T00:02:38.339Z,83.41
2019-03-29T00:04:16.834Z,83.36
2019-03-29T00:05:54.071Z,83.26
2019-03-29T00:07:39.477Z,83.03
2019-03-29T00:09:12.090Z,83.20
2019-03-29T00:10:49.138Z,83.29
2019-03-29T00:12:26.849Z,83.66
2019-03-29T00:14:06.450Z,83.87
2019-03-29T00:15:45.350Z,83.78
2019-03-29T00:17:22.878Z,83.78
2019-03-29T00:19:02.847Z,83.87
2019-03-29T00:20:41.640Z,83.74
2019-03-29T00:22:20.433Z,83.57
2019-03-29T00:24:06.634Z,83.48
2019-03-29T00:25:39.510Z,83.55
2019-03-29T00:27:18.972Z,83.64
2019-03-29T00:28:56.633Z,83.32
2019-03-29T00:30:35.714Z,83.49
2019-03-29T00:32:14.846Z,83.46
2019-03-29T00:33:53.588Z,83.46
2019-03-29T00:35:34.159Z,83.41
2019-03-29T00:37:12.239Z,83.30
2019-03-29T00:38:49.926Z,83.11
2019-03-29T00:40:29.561Z,83.25
2019-03-29T00:42:07.354Z,83.21
2019-03-29T00:43:47.020Z,83.18
2019-03-29T00:45:25.371Z,83.15
2019-03-29T00:47:07.325Z,83.15
2019-03-29T00:48:45.972Z,83.44
2019-03-29T00:50:24.487Z,83.61
2019-03-29T00:52:03.225Z,83.53
2019-03-29T00:53:42.324Z,83.14
2019-03-29T00:55:20.205Z,83.48
2019-03-29T00:56:58.277Z,83.27
2019-03-29T00:58:36.241Z,83.31
2019-03-29T01:00:13.805Z,83.38
2019-03-29T01:01:55.406Z,83.46
2019-03-29T01:03:35.149Z,83.39
2019-03-29T01:05:13.038Z,83.11
2019-03-29T01:06:50.610Z,82.98
2019-03-29T01:08:29.741Z,83.03
2019-03-29T01:10:07.318Z,83.31
2019-03-29T01:11:45.240Z,83.58
2019-03-29T01:13:24.234Z,83.75
2019-03-29T01:15:02.635Z,83.79
2019-03-29T01:16:41.072Z,83.38
2019-03-29T01:18:18.830Z,82.93
2019-03-29T01:19:56.457Z,82.85
2019-03-29T01:21:35.586Z,83.14
2019-03-29T01:23:15.973Z,83.12
2019-03-29T01:24:53.344Z,83.36
2019-03-29T01:26:31.904Z,83.60
2019-03-29T01:28:09.446Z,83.53
2019-03-29T01:29:48.204Z,83.75
2019-03-29T01:31:25.998Z,83.77
2019-03-29T01:33:06.488Z,83.85
2019-03-29T01:34:45.701Z,83.58
2019-03-29T01:36:23.904Z,83.39
2019-03-29T01:38:06.518Z,83.31
2019-03-29T01:39:45.205Z,83.42
2019-03-29T01:41:23.886Z,83.35
2019-03-29T01:43:01.488Z,83.22
2019-03-29T01:44:38.937Z,83.76
2019-03-29T01:46:17.282Z,83.57
2019-03-29T01:47:55.976Z,83.47
2019-03-29T01:49:34.571Z,83.34
2019-03-29T01:51:12.695Z,83.24
2019-03-29T01:52:50.110Z,83.24
2019-03-29T01:54:27.456Z,83.65
2019-03-29T01:56:06.055Z,83.44
2019-03-29T01:57:43.715Z,83.29
2019-03-29T01:59:22.474Z,83.35
2019-03-29T02:01:01.285Z,83.28
2019-03-29T02:02:39.398Z,83.35
2019-03-29T02:04:17.370Z,83.21
2019-03-29T02:05:56.211Z,83.37
2019-03-29T02:07:34.319Z,83.28
2019-03-29T02:09:13.285Z,83.35
2019-03-29T02:10:52.178Z,83.53
2019-03-29T02:12:30.866Z,83.45
2019-03-29T02:14:09.510Z,83.37
2019-03-29T02:15:48.792Z,83.67
2019-03-29T02:17:27.919Z,83.29
2019-03-29T02:19:07.154Z,83.30
2019-03-29T02:20:47.378Z,83.30
2019-03-29T02:22:27.025Z,82.33
2019-03-29T02:24:04.724Z,82.71
2019-03-29T02:25:43.781Z,82.77
2019-03-29T02:27:23.160Z,82.75
2019-03-29T02:29:00.747Z,82.61
2019-03-29T02:30:40.096Z,82.63
2019-03-29T02:32:19.463Z,82.84
2019-03-29T02:33:59.693Z,82.85
2019-03-29T02:35:38.956Z,82.75
2019-03-29T02:37:18.124Z,82.70
2019-03-29T02:38:56.379Z,82.67
2019-03-29T02:40:39.554Z,82.80
2019-03-29T02:42:18.607Z,83.01
2019-03-29T02:43:57.622Z,82.97
2019-03-29T02:45:37.153Z,82.97
2019-03-29T02:47:16.049Z,83.41
2019-03-29T02:48:54.263Z,83.21
2019-03-29T02:50:33.199Z,83.24
2019-03-29T02:52:12.321Z,83.25
2019-03-29T02:53:50.010Z,83.40
2019-03-29T02:55:28.439Z,83.50
2019-03-29T02:57:06.208Z,83.46
2019-03-29T02:58:48.005Z,83.50
2019-03-29T03:00:25.126Z,83.70
2019-03-29T03:02:04.058Z,83.60
2019-03-29T03:03:42.467Z,83.89
2019-03-29T03:05:21.328Z,84.09
2019-03-29T03:06:59.697Z,84.10
2019-03-29T03:08:36.985Z,84.00
2019-03-29T03:10:14.031Z,84.09
2019-03-29T03:11:51.709Z,84.10
2019-03-29T03:13:28.934Z,83.95
2019-03-29T03:15:07.716Z,83.79
2019-03-29T03:16:45.122Z,83.67
2019-03-29T03:18:22.811Z,83.51
2019-03-29T03:20:00.588Z,83.42
2019-03-29T03:21:38.575Z,83.14
2019-03-29T03:23:16.282Z,82.91
2019-03-29T03:24:55.789Z,82.55
2019-03-29T03:26:33.441Z,82.70
2019-03-29T03:28:12.379Z,82.81
2019-03-29T03:29:52.782Z,82.71
2019-03-29T03:31:31.060Z,82.49
2019-03-29T03:33:11.041Z,82.36
2019-03-29T03:35:00.358Z,82.39
2019-03-29T03:36:39.778Z,82.51
2019-03-29T03:38:20.460Z,82.53
2019-03-29T03:39:58.189Z,82.43
2019-03-29T03:41:38.414Z,82.39
2019-03-29T03:43:18.885Z,82.48
2019-03-29T03:44:56.666Z,82.20
2019-03-29T03:46:34.570Z,81.87
2019-03-29T03:48:13.511Z,81.89
2019-03-29T03:49:54.050Z,81.69
2019-03-29T03:51:33.174Z,81.92
2019-03-29T03:53:19.310Z,81.73
2019-03-29T03:55:13.724Z,81.87
2019-03-29T03:56:54.369Z,81.95
2019-03-29T03:58:35.519Z,81.87
2019-03-29T04:00:12.732Z,81.65
2019-03-29T04:01:49.797Z,81.81
2019-03-29T04:03:26.990Z,82.21
2019-03-29T04:05:04.419Z,82.25
2019-03-29T04:06:42.185Z,82.27
2019-03-29T04:08:25.012Z,82.38
2019-03-29T04:10:04.418Z,82.42
2019-03-29T04:11:42.481Z,81.91
2019-03-29T04:13:19.773Z,81.80
2019-03-29T04:14:56.927Z,81.74
2019-03-29T04:16:35.520Z,81.82
2019-03-29T04:18:15.786Z,81.82
2019-03-29T04:19:51.803Z,81.50
2019-03-29T04:21:28.952Z,81.28
2019-03-29T04:23:06.498Z,81.15
2019-03-29T04:24:43.875Z,80.79
2019-03-29T04:26:20.909Z,80.69
2019-03-29T04:27:58.443Z,80.29
2019-03-29T04:29:38.142Z,79.74
2019-03-29T04:31:15.576Z,78.39
2019-03-29T04:32:54.065Z,77.31
2019-03-29T04:34:33.597Z,77.70
2019-03-29T04:36:11.974Z,76.01
2019-03-29T04:37:50.502Z,75.89
2019-03-29T04:39:28.115Z,74.89
2019-03-29T04:41:06.314Z,74.20
2019-03-29T04:42:44.287Z,73.07
2019-03-29T04:44:24.660Z,72.57
2019-03-29T04:46:04.019Z,71.37
2019-03-29T04:47:42.847Z,70.47
2019-03-29T04:49:21.916Z,70.55
2019-03-29T04:51:02.326Z,69.55
2019-03-29T04:52:39.428Z,69.51
2019-03-29T04:54:17.264Z,68.94
2019-03-29T04:55:54.550Z,67.39
2019-03-29T04:57:35.152Z,66.02
2019-03-29T04:59:12.885Z,65.65
2019-03-29T05:00:51.258Z,65.30
2019-03-29T05:02:30.227Z,64.69
2019-03-29T05:04:07.728Z,64.02
2019-03-29T05:05:44.901Z,63.45
2019-03-29T05:07:22.875Z,63.71
2019-03-29T05:09:01.635Z,63.33
2019-03-29T05:12:43.552Z,61.20
2019-03-29T05:14:21.298Z,61.46
2019-03-29T05:15:59.823Z,61.66
2019-03-29T05:17:36.856Z,61.11
2019-03-29T05:19:20.106Z,61.66
2019-03-29T05:20:57.612Z,59.65
2019-03-29T05:22:35.637Z,59.70
2019-03-29T05:24:15.200Z,59.75
2019-03-29T05:25:55.094Z,59.67
2019-03-29T05:27:32.952Z,59.23
2019-03-29T05:29:10.920Z,58.54
2019-03-29T05:30:50.522Z,59.20
2019-03-29T05:32:31.729Z,58.15
2019-03-29T05:34:10.464Z,57.56
2019-03-29T05:35:48.255Z,57.95
2019-03-29T05:37:25.618Z,58.20
2019-03-29T05:39:02.854Z,57.54
2019-03-29T05:40:40.260Z,56.85
2019-03-29T05:42:17.577Z,57.59
2019-03-29T05:43:54.784Z,56.82
2019-03-29T05:45:35.483Z,56.86
2019-03-29T05:47:12.576Z,55.93
2019-03-29T05:48:49.631Z,56.45
2019-03-29T05:50:32.452Z,56.76
2019-03-29T05:52:11.660Z,55.27
2019-03-29T05:53:49.509Z,55.87
2019-03-29T05:55:32.880Z,55.60
2019-03-29T05:57:07.678Z,55.29
2019-03-29T05:58:44.854Z,55.56
2019-03-29T06:00:24.110Z,55.46
2019-03-29T06:02:01.274Z,54.96
2019-03-29T06:03:38.649Z,54.91
2019-03-29T06:05:16.011Z,54.23
2019-03-29T06:06:53.810Z,53.48
2019-03-29T06:08:31.083Z,53.36
2019-03-29T06:10:08.489Z,53.70
2019-03-29T06:11:45.888Z,52.78
2019-03-29T06:13:23.144Z,52.80
2019-03-29T06:15:04.843Z,52.79
2019-03-29T06:16:45.316Z,52.87
2019-03-29T06:18:23.499Z,51.30
2019-03-29T06:20:00.838Z,52.06
2019-03-29T06:21:38.190Z,53.05
2019-03-29T06:23:16.007Z,51.74
2019-03-29T06:24:53.708Z,50.82
2019-03-29T06:26:32.515Z,51.28
2019-03-29T06:28:09.968Z,52.19
2019-03-29T06:29:47.681Z,52.64
2019-03-29T06:31:25.311Z,51.41
2019-03-29T06:33:03.095Z,50.54
2019-03-29T06:34:41.833Z,51.15
2019-03-29T06:36:18.854Z,50.13
2019-03-29T06:37:56.208Z,49.81
2019-03-29T06:39:34.798Z,49.21
2019-03-29T06:41:13.640Z,48.48
2019-03-29T06:42:51.299Z,48.99
2019-03-29T06:44:28.414Z,48.47
2019-03-29T06:46:05.339Z,48.11
2019-03-29T06:47:42.878Z,47.56
2019-03-29T06:49:20.122Z,47.53
2019-03-29T06:50:57.356Z,46.84
2019-03-29T06:52:35.287Z,47.16
2019-03-29T06:54:14.011Z,46.90
2019-03-29T06:55:51.369Z,46.81
2019-03-29T06:57:29.464Z,46.35
2019-03-29T06:59:06.609Z,46.67
2019-03-29T07:00:46.513Z,46.34
2019-03-29T07:02:23.316Z,46.67
2019-03-29T07:04:03.497Z,46.72
2019-03-29T07:05:40.300Z,45.94
2019-03-29T07:07:18.255Z,45.16
2019-03-29T07:08:56.839Z,44.42
2019-03-29T07:10:35.626Z,44.67
2019-03-29T07:12:15.392Z,44.68
2019-03-29T07:13:57.675Z,44.44
2019-03-29T07:15:31.916Z,43.79
2019-03-29T07:17:12.187Z,44.20
2019-03-29T07:18:49.319Z,44.64
2019-03-29T07:20:27.692Z,43.35
2019-03-29T07:22:05.284Z,44.40
2019-03-29T07:23:42.623Z,43.81
2019-03-29T07:25:19.846Z,43.67
2019-03-29T07:26:57.883Z,43.51
2019-03-29T07:28:39.076Z,42.42
2019-03-29T07:30:16.114Z,43.35
2019-03-29T07:31:54.399Z,43.06
2019-03-29T07:33:31.974Z,43.92
2019-03-29T07:35:12.728Z,42.45
2019-03-29T07:36:51.117Z,43.34
2019-03-29T07:38:31.996Z,42.61
2019-03-29T07:40:09.466Z,42.11
2019-03-29T07:41:47.423Z,42.10
2019-03-29T07:43:25.756Z,39.91
2019-03-29T07:45:03.105Z,43.19
2019-03-29T07:46:41.265Z,39.43
2019-03-29T07:48:19.335Z,39.53
2019-03-29T07:49:58.418Z,38.47
2019-03-29T07:51:35.939Z,38.11
2019-03-29T09:32:52.136Z,22.73
2019-03-29T09:34:33.475Z,22.19
2019-03-29T09:36:17.125Z,21.70
2019-03-29T09:38:00.414Z,24.00
2019-03-29T09:39:39.956Z,22.63
2019-03-29T09:41:23.571Z,22.98
2019-03-29T09:43:08.804Z,23.49
2019-03-29T09:44:49.488Z,24.29
2019-03-29T09:46:29.602Z,22.71
2019-03-29T09:48:09.536Z,22.83
2019-03-29T09:49:51.725Z,22.89
2019-03-29T09:51:35.936Z,22.89
2019-03-29T09:53:19.171Z,23.37
2019-03-29T09:54:59.512Z,23.85
2019-03-29T09:56:39.541Z,24.97
2019-03-29T09:58:18.345Z,26.08
2019-03-29T10:00:01.633Z,26.23
2019-03-29T10:01:45.058Z,27.88
2019-03-29T10:03:45.655Z,29.47
2019-03-29T10:05:31.252Z,28.46
2019-03-29T10:07:12.620Z,26.22
2019-03-29T10:09:12.881Z,26.32
2019-03-29T10:10:54.955Z,25.69
2019-03-29T10:12:43.398Z,23.96
2019-03-29T10:14:15.759Z,23.74
2019-03-29T10:15:55.347Z,24.15
2019-03-29T10:17:35.574Z,23.40
2019-03-29T10:19:16.552Z,23.37
2019-03-29T10:20:55.803Z,24.24
2019-03-29T10:22:34.890Z,24.21
2019-03-29T10:24:13.477Z,22.62
2019-03-29T10:25:51.678Z,22.08
2019-03-29T10:27:30.999Z,21.67
2019-03-29T10:29:11.438Z,20.82
2019-03-29T10:30:50.443Z,21.57
2019-03-29T10:32:29.225Z,21.96
2019-03-29T10:34:08.606Z,21.05
2019-03-29T10:35:53.026Z,20.83
2019-03-29T11:32:55.717Z,23.74
2019-03-29T11:34:35.986Z,23.38
2019-03-29T11:36:17.608Z,24.12
2019-03-29T11:38:06.120Z,24.47
2019-03-29T11:39:54.290Z,25.00
2019-03-29T11:41:36.566Z,27.46
2019-03-29T11:43:26.549Z,23.88
2019-03-29T11:44:59.463Z,24.00
2019-03-29T11:46:41.190Z,23.50
2019-03-29T11:48:20.671Z,24.29
2019-03-29T11:50:06.357Z,24.12
2019-03-29T11:51:49.603Z,25.67
2019-03-29T11:53:28.563Z,27.97
2019-03-29T11:55:07.876Z,27.75
2019-03-29T11:56:47.771Z,26.36
2019-03-29T11:58:28.448Z,25.87
2019-03-29T16:09:05.612Z,44.82
2019-03-29T16:10:47.048Z,45.41
2019-03-29T16:12:27.166Z,45.50
2019-03-29T16:14:05.491Z,45.50
2019-03-29T16:15:44.407Z,45.51
2019-03-29T16:17:23.481Z,45.89
2019-03-29T16:20:55.535Z,46.61
2019-03-29T16:22:36.185Z,46.20
2019-03-29T16:24:13.339Z,46.33
2019-03-29T16:25:52.465Z,46.47
2019-03-29T16:27:31.694Z,46.47
2019-03-29T16:29:11.580Z,46.25
2019-03-29T16:30:49.051Z,46.40
2019-03-29T16:32:26.632Z,46.85
2019-03-29T16:34:09.416Z,46.55
2019-03-29T16:35:57.781Z,46.51
2019-03-29T16:38:00.451Z,46.75
2019-03-29T16:40:13.304Z,46.77
2019-03-29T16:42:21.842Z,47.05
2019-03-29T16:44:33.895Z,47.07
2019-03-29T16:46:59.104Z,47.85
2019-03-29T16:49:07.434Z,48.27
2019-03-29T16:51:24.817Z,48.35
2019-03-29T16:53:33.467Z,48.91
2019-03-29T16:55:42.349Z,49.16
2019-03-29T16:58:02.791Z,49.45
2019-03-29T17:00:34.041Z,49.77
2019-03-29T17:02:39.436Z,50.07
2019-03-29T17:04:52.646Z,50.37
2019-03-29T17:09:25.844Z,50.63
2019-03-29T17:11:35.597Z,51.07
2019-03-29T17:13:53.286Z,50.77
2019-03-29T17:16:14.683Z,50.91
2019-03-29T17:18:47.576Z,51.37
2019-03-29T17:21:08.731Z,50.99
2019-03-29T17:23:28.477Z,51.12
2019-03-29T17:25:24.941Z,51.12
2019-03-29T17:27:04.059Z,50.90
2019-03-29T17:28:45.578Z,50.85
2019-03-29T17:30:36.663Z,51.03
2019-03-29T17:32:32.461Z,50.84
2019-03-29T17:34:24.320Z,51.06
2019-03-29T17:36:04.776Z,50.92
2019-03-29T17:37:47.523Z,50.92
2019-03-29T17:39:27.776Z,50.91
2019-03-29T17:41:14.567Z,50.66
2019-03-29T17:44:52.583Z,50.65
2019-03-29T17:46:31.988Z,50.63
2019-03-29T17:48:13.936Z,50.67
2019-03-29T17:49:54.700Z,50.71
2019-03-29T17:51:33.900Z,50.80
2019-03-29T17:53:12.853Z,50.87
2019-03-29T17:54:51.314Z,50.76
2019-03-29T17:56:31.371Z,51.13
2019-03-29T17:58:09.533Z,51.39
2019-03-29T17:59:47.167Z,51.01
2019-03-29T18:01:24.826Z,50.98
2019-03-29T18:03:05.528Z,51.18
2019-03-29T18:04:48.997Z,51.50
2019-03-29T18:06:27.553Z,51.60
2019-03-29T18:08:08.148Z,51.92
2019-03-29T18:09:54.824Z,51.85
2019-03-29T18:11:33.068Z,51.91
2019-03-29T18:13:15.002Z,52.56
2019-03-29T18:14:54.110Z,52.91
2019-03-29T18:16:36.172Z,53.08
2019-03-29T18:18:13.570Z,52.87
2019-03-29T18:19:53.345Z,53.11
2019-03-29T18:21:34.286Z,53.22
2019-03-29T18:23:18.485Z,53.29
2019-03-29T18:24:58.624Z,53.29
2019-03-29T18:26:40.346Z,52.89
2019-03-29T18:28:18.559Z,52.27
2019-03-29T18:29:57.724Z,52.91
2019-03-29T18:31:36.874Z,52.66
2019-03-29T18:33:20.292Z,52.49
2019-03-29T18:35:13.412Z,52.52
2019-03-29T18:36:55.163Z,52.54
2019-03-29T18:38:33.714Z,52.27
2019-03-29T18:40:29.993Z,52.36
2019-03-29T18:42:10.948Z,52.49
2019-03-29T18:43:52.131Z,52.23
2019-03-29T18:45:30.800Z,52.40
2019-03-29T18:47:13.117Z,52.63
2019-03-29T18:48:58.169Z,52.68
2019-03-29T18:50:35.880Z,52.38
2019-03-29T18:52:16.922Z,52.46
2019-03-29T18:53:56.147Z,52.60
2019-03-29T18:55:34.665Z,52.83
2019-03-29T18:57:13.387Z,52.85
2019-03-29T18:58:54.006Z,52.44
2019-03-29T19:00:34.685Z,52.78
2019-03-29T19:02:11.928Z,52.87
2019-03-29T19:03:49.104Z,53.02
2019-03-29T19:05:30.991Z,53.43
2019-03-29T19:07:09.193Z,52.89
2019-03-29T19:08:46.933Z,53.58
2019-03-29T19:10:26.372Z,53.65
2019-03-29T19:12:06.533Z,53.79
2019-03-29T19:13:43.650Z,53.75
2019-03-29T19:15:24.902Z,53.64
2019-03-29T19:17:25.727Z,53.73
2019-03-29T19:19:10.197Z,53.76
2019-03-29T19:20:47.993Z,54.14
2019-03-29T19:22:27.305Z,54.26
2019-03-29T19:24:05.692Z,54.35
2019-03-29T19:25:44.759Z,54.41
2019-03-29T19:27:22.320Z,54.56
2019-03-29T19:29:05.718Z,54.47
2019-03-29T19:31:15.708Z,54.84
2019-03-29T19:32:53.984Z,54.37
2019-03-29T19:34:30.815Z,53.96
2019-03-29T19:36:13.854Z,54.03
2019-03-29T19:37:54.986Z,53.82
2019-03-29T19:39:35.108Z,53.52
2019-03-29T19:41:15.993Z,53.18
2019-03-29T19:42:53.955Z,52.87
2019-03-29T19:44:35.733Z,53.28
2019-03-29T19:46:29.397Z,53.46
2019-03-29T19:48:14.877Z,53.04
2019-03-29T19:50:07.776Z,53.15
2019-03-29T19:52:06.036Z,52.63
2019-03-29T19:54:07.488Z,52.58
2019-03-29T19:55:47.211Z,52.75
2019-03-29T19:57:27.054Z,52.18
2019-03-29T19:59:14.518Z,52.56
2019-03-29T20:01:03.056Z,52.35
2019-03-29T20:02:48.642Z,52.80
2019-03-29T20:04:31.403Z,52.44
2019-03-29T20:06:14.244Z,53.38
2019-03-29T20:08:06.352Z,53.09
2019-03-29T20:10:04.473Z,52.68
2019-03-29T20:11:53.153Z,53.13
2019-03-29T20:13:35.957Z,53.33
2019-03-29T20:15:16.097Z,53.23
2019-03-29T20:17:04.215Z,53.09
2019-03-29T20:18:51.160Z,53.34
2019-03-29T20:20:37.383Z,53.28
2019-03-29T20:22:18.653Z,53.86
2019-03-29T20:24:01.878Z,53.87
2019-03-29T20:25:44.864Z,53.57
2019-03-29T20:27:32.474Z,53.27
2019-03-29T20:29:23.405Z,53.33
2019-03-29T20:31:03.982Z,53.77
2019-03-29T20:32:50.773Z,53.72
2019-03-29T20:34:48.680Z,53.33
2019-03-29T20:36:28.858Z,53.23
2019-03-29T20:38:10.681Z,53.13
2019-03-29T20:40:10.364Z,53.34
2019-03-29T20:41:51.476Z,53.63
2019-03-29T20:43:31.927Z,53.90
2019-03-29T20:45:21.296Z,54.18
2019-03-29T20:47:12.218Z,54.29
2019-03-29T20:48:57.206Z,54.69
2019-03-29T20:50:41.825Z,54.90
2019-03-29T20:52:23.212Z,55.05
2019-03-29T20:54:06.682Z,54.96
2019-03-29T20:55:50.118Z,54.99
2019-03-29T20:57:33.352Z,54.93
2019-03-29T20:59:16.191Z,54.70
2019-03-29T21:00:58.098Z,55.42
2019-03-29T21:02:39.373Z,54.69
2019-03-29T21:04:20.266Z,54.90
2019-03-29T21:06:07.450Z,54.74
2019-03-29T21:07:54.981Z,54.58
2019-03-29T21:09:39.410Z,53.98
2019-03-29T21:11:23.560Z,54.66
2019-03-29T21:13:03.265Z,54.50
2019-03-29T21:14:45.669Z,54.35
2019-03-29T21:16:27.997Z,54.27
2019-03-29T21:18:25.766Z,53.83
2019-03-29T21:20:11.415Z,54.16
2019-03-29T21:21:58.510Z,54.17
2019-03-29T21:23:47.101Z,54.75
2019-03-29T21:25:26.782Z,54.45
2019-03-29T21:27:11.329Z,54.58
2019-03-29T21:28:54.326Z,54.64
2019-03-29T21:30:42.139Z,54.92
2019-03-29T21:32:28.719Z,55.09
2019-03-29T21:34:09.659Z,55.33
2019-03-29T21:35:51.909Z,55.25
2019-03-29T21:37:36.483Z,55.26
2019-03-29T21:39:18.052Z,55.62
2019-03-29T21:41:05.892Z,55.43
2019-03-29T21:42:46.662Z,55.55
2019-03-29T21:44:27.035Z,55.61
2019-03-29T21:46:10.069Z,55.77
2019-03-29T21:48:04.667Z,56.12
2019-03-29T21:49:34.919Z,55.98
2019-03-29T21:51:19.594Z,55.93
2019-03-29T21:53:03.698Z,56.07
2019-03-29T21:54:50.453Z,56.26
2019-03-29T21:56:38.067Z,56.30
2019-03-29T21:58:21.667Z,56.22
2019-03-29T22:00:14.769Z,56.48
2019-03-29T22:01:58.142Z,56.58
2019-03-29T22:03:49.859Z,56.77
2019-03-29T22:05:33.212Z,57.01
2019-03-29T22:07:14.150Z,56.72
2019-03-29T22:08:57.672Z,56.69
2019-03-29T22:10:47.449Z,56.46
2019-03-29T22:12:28.955Z,57.00
2019-03-29T22:14:10.977Z,57.14
2019-03-29T22:15:53.680Z,57.33
2019-03-29T22:17:35.080Z,57.39
2019-03-29T22:19:24.978Z,57.30
2019-03-29T22:21:10.417Z,57.11
2019-03-29T22:22:53.686Z,57.35
2019-03-29T22:24:36.555Z,57.31
2019-03-29T22:26:18.084Z,57.43
2019-03-29T22:27:58.116Z,57.42
2019-03-29T22:29:45.575Z,57.57
2019-03-29T22:31:31.650Z,57.59
2019-03-29T22:33:11.863Z,57.69
2019-03-29T22:34:54.983Z,57.65
2019-03-29T22:36:36.851Z,57.84
2019-03-29T22:38:18.443Z,57.89
2019-03-29T22:40:00.384Z,57.56
2019-03-29T22:41:45.077Z,57.54
2019-03-29T22:43:27.782Z,57.40
2019-03-29T22:45:10.289Z,57.40
2019-03-29T22:46:55.511Z,57.61
2019-03-29T22:48:34.903Z,57.32
2019-03-29T22:50:15.511Z,57.64
2019-03-29T22:51:57.429Z,57.51
2019-03-29T22:53:41.129Z,57.68
2019-03-29T22:55:25.682Z,57.79
2019-03-29T22:57:05.252Z,57.74
2019-03-29T22:58:47.273Z,58.04
2019-03-29T23:00:41.097Z,57.60
2019-03-29T23:02:25.707Z,57.78
2019-03-29T23:04:08.254Z,57.73
2019-03-29T23:05:50.612Z,58.12
2019-03-29T23:07:33.725Z,58.59
2019-03-29T23:09:16.767Z,58.32
2019-03-29T23:10:57.830Z,58.50
2019-03-29T23:12:41.834Z,58.41
2019-03-29T23:14:27.529Z,59.05
2019-03-29T23:16:13.316Z,58.77
2019-03-29T23:17:58.295Z,58.80
2019-03-29T23:19:42.976Z,58.70
2019-03-29T23:21:22.319Z,58.76
2019-03-29T23:23:05.379Z,58.78
2019-03-29T23:24:48.862Z,59.13
2019-03-29T23:26:30.168Z,59.27
2019-03-29T23:28:12.238Z,59.44
2019-03-29T23:29:55.824Z,59.49
2019-03-29T23:31:39.158Z,59.56
2019-03-29T23:33:19.179Z,59.84
2019-03-29T23:35:02.641Z,59.67
2019-03-29T23:36:44.909Z,59.98
2019-03-29T23:38:27.626Z,59.84
2019-03-29T23:40:07.575Z,60.08
2019-03-29T23:41:47.778Z,60.31
2019-03-29T23:43:29.337Z,60.46
2019-03-29T23:45:11.767Z,60.67
2019-03-29T23:46:51.393Z,60.86
2019-03-29T23:48:32.228Z,61.12
2019-03-29T23:50:14.190Z,61.11
2019-03-29T23:51:58.675Z,61.30
2019-03-29T23:53:37.768Z,61.31
2019-03-29T23:55:15.883Z,61.18
2019-03-29T23:56:55.276Z,61.40
2019-03-29T23:58:35.133Z,61.40
